createdAt,value
2023-04-17T00:02:16.907Z,93819.97
2023-04-17T00:04:46.525Z,93819.78
2023-04-17T00:07:14.420Z,93817.22
2023-04-17T00:09:42.298Z,93821.38
2023-04-17T00:12:10.225Z,93816.97
2023-04-17T00:14:38.110Z,93816.78
2023-04-17T00:17:06.106Z,93811.59
2023-04-17T00:19:34.037Z,93820.19
2023-04-17T00:22:03.405Z,93814.78
2023-04-17T00:24:31.270Z,93813.78
2023-04-17T00:27:01.218Z,93808.56
2023-04-17T00:29:29.107Z,93811.97
2023-04-17T00:31:57.105Z,93816.56
2023-04-17T00:34:25.129Z,93819.78
2023-04-17T00:36:52.976Z,93810.78
2023-04-17T00:39:22.346Z,93814.97
2023-04-17T00:41:50.283Z,93815.16
2023-04-17T00:44:18.190Z,93820.56
2023-04-17T00:46:46.175Z,93808.16
2023-04-17T00:49:14.701Z,93808.53
2023-04-17T00:51:42.633Z,93802.56
2023-04-17T00:54:11.143Z,93806.97
2023-04-17T00:56:40.659Z,93805.78
2023-04-17T00:59:13.164Z,93799.94
2023-04-17T01:01:41.370Z,93797.13
2023-04-17T01:04:11.364Z,93799.75
2023-04-17T01:06:39.439Z,93803.75
2023-04-17T01:09:07.799Z,93797.72
2023-04-17T01:11:36.325Z,93788.88
2023-04-17T01:14:05.613Z,93795.47
2023-04-17T01:16:33.984Z,93790.28
2023-04-17T01:19:02.243Z,93788.88
2023-04-17T01:21:30.101Z,93792.09
2023-04-17T01:24:04.903Z,93788.06
2023-04-17T01:26:33.579Z,93790.84
2023-04-17T01:29:01.724Z,93788.44
2023-04-17T01:31:30.245Z,93788.44
2023-04-17T01:33:58.205Z,93791.03
2023-04-17T01:36:28.813Z,93797.63
2023-04-17T01:38:56.718Z,93788.44
2023-04-17T01:41:26.028Z,93794.63
2023-04-17T01:43:53.979Z,93791.19
2023-04-17T01:46:21.972Z,93784.00
2023-04-17T01:48:49.867Z,93786.63
2023-04-17T01:51:17.780Z,93777.41
2023-04-17T01:53:45.806Z,93776.00
2023-04-17T01:56:14.214Z,93769.38
2023-04-17T01:58:43.747Z,93775.16
2023-04-17T02:01:11.724Z,93771.97
2023-04-17T02:03:42.366Z,93776.56
2023-04-17T02:06:10.712Z,93778.16
2023-04-17T02:08:38.674Z,93767.53
2023-04-17T02:11:06.782Z,93774.75
2023-04-17T02:13:34.664Z,93766.94
2023-04-17T02:16:03.969Z,93773.34
2023-04-17T02:18:31.889Z,93774.59
2023-04-17T02:20:59.942Z,93770.22
2023-04-17T02:23:27.860Z,93776.22
2023-04-17T02:25:56.109Z,93776.44
2023-04-17T02:28:23.970Z,93778.03
2023-04-17T02:30:51.914Z,93768.63
2023-04-17T02:33:21.456Z,93768.25
2023-04-17T02:35:49.967Z,93760.88
2023-04-17T02:38:17.843Z,93770.66
2023-04-17T02:40:45.756Z,93769.44
2023-04-17T02:43:15.130Z,93773.81
2023-04-17T02:45:43.046Z,93775.59
2023-04-17T02:48:10.957Z,93770.19
2023-04-17T02:50:40.269Z,93772.00
2023-04-17T02:53:08.990Z,93774.19
2023-04-17T02:55:37.074Z,93771.00
2023-04-17T02:58:04.933Z,93776.41
2023-04-17T03:00:33.039Z,93776.00
2023-04-17T03:03:01.084Z,93778.19
2023-04-17T03:05:30.549Z,93773.59
2023-04-17T03:08:00.846Z,93774.59
2023-04-17T03:10:28.693Z,93777.31
2023-04-17T03:12:56.629Z,93773.34
2023-04-17T03:15:24.684Z,93773.50
2023-04-17T03:17:52.664Z,93779.94
2023-04-17T03:20:21.824Z,93777.94
2023-04-17T03:22:49.743Z,93775.50
2023-04-17T03:25:19.171Z,93779.50
2023-04-17T03:27:47.067Z,93776.50
2023-04-17T03:30:15.382Z,93779.47
2023-04-17T03:32:43.253Z,93776.69
2023-04-17T03:35:11.131Z,93780.06
2023-04-17T03:37:39.042Z,93779.09
2023-04-17T03:40:08.583Z,93767.47
2023-04-17T03:42:37.864Z,93775.06
2023-04-17T03:45:06.453Z,93782.31
2023-04-17T03:47:34.334Z,93782.66
2023-04-17T03:50:02.290Z,93784.47
2023-04-17T03:52:30.233Z,93788.06
2023-04-17T03:55:00.336Z,93779.69
2023-04-17T03:57:28.207Z,93787.47
2023-04-17T03:59:59.715Z,93790.06
2023-04-17T04:02:27.821Z,93774.19
2023-04-17T04:04:55.956Z,93789.56
2023-04-17T04:07:23.943Z,93795.81
2023-04-17T04:09:51.854Z,93793.66
2023-04-17T04:12:19.759Z,93789.69
2023-04-17T04:14:47.632Z,93790.31
2023-04-17T04:17:16.957Z,93791.13
2023-04-17T04:19:46.152Z,93797.34
2023-04-17T04:22:14.658Z,93790.94
2023-04-17T04:24:42.856Z,93794.34
2023-04-17T04:27:12.224Z,93785.88
2023-04-17T04:29:40.132Z,93794.72
2023-04-17T04:32:09.837Z,93799.53
2023-04-17T04:34:39.302Z,93794.13
2023-04-17T04:37:08.186Z,93798.53
2023-04-17T04:39:37.970Z,93793.34
2023-04-17T04:42:09.995Z,93806.16
2023-04-17T04:44:38.214Z,93798.34
2023-04-17T04:47:06.349Z,93809.22
2023-04-17T04:49:34.262Z,93807.22
2023-04-17T04:52:03.572Z,93806.78
2023-04-17T04:54:31.454Z,93810.41
2023-04-17T04:56:59.439Z,93808.19
2023-04-17T04:59:27.916Z,93817.41
2023-04-17T05:01:56.114Z,93808.81
2023-04-17T05:04:24.167Z,93808.41
2023-04-17T05:06:52.287Z,93816.22
2023-04-17T05:09:22.212Z,93810.66
2023-04-17T05:11:50.146Z,93808.06
2023-04-17T05:14:18.019Z,93815.66
2023-04-17T05:16:46.165Z,93814.47
2023-04-17T05:19:14.620Z,93819.09
2023-04-17T05:21:42.671Z,93815.31
2023-04-17T05:24:10.741Z,93822.53
2023-04-17T05:26:39.985Z,93814.13
2023-04-17T05:29:09.089Z,93820.34
2023-04-17T05:31:37.370Z,93817.50
2023-04-17T05:34:05.401Z,93816.13
2023-04-17T05:36:33.247Z,93819.75
2023-04-17T05:39:01.093Z,93823.38
2023-04-17T05:41:31.215Z,93818.59
2023-04-17T05:44:00.430Z,93821.59
2023-04-17T05:46:28.346Z,93821.19
2023-04-17T05:48:56.261Z,93828.78
2023-04-17T05:51:24.181Z,93822.78
2023-04-17T05:53:53.251Z,93828.38
2023-04-17T05:56:21.155Z,93825.75
2023-04-17T05:58:48.985Z,93835.97
2023-04-17T06:01:22.512Z,93835.97
2023-04-17T06:03:51.061Z,93823.75
2023-04-17T06:06:19.384Z,93837.22
2023-04-17T06:08:48.941Z,93835.59
2023-04-17T06:11:17.512Z,93846.19
2023-04-17T06:13:45.489Z,93837.38
2023-04-17T06:16:13.538Z,93839.41
2023-04-17T06:18:43.062Z,93846.22
2023-04-17T06:21:11.329Z,93838.81
2023-04-17T06:23:39.236Z,93844.84
2023-04-17T06:26:09.282Z,93847.25
2023-04-17T06:28:37.130Z,93856.50
2023-04-17T06:31:05.136Z,93862.13
2023-04-17T06:33:34.133Z,93861.53
2023-04-17T06:36:03.686Z,93862.09
2023-04-17T06:38:31.504Z,93865.31
2023-04-17T06:40:59.381Z,93864.94
2023-04-17T06:43:27.220Z,93858.31
2023-04-17T06:45:55.159Z,93862.72
2023-04-17T06:48:23.151Z,93861.94
2023-04-17T06:50:51.085Z,93858.31
2023-04-17T06:53:21.617Z,93864.09
2023-04-17T06:55:49.522Z,93863.09
2023-04-17T06:58:17.795Z,93851.91
2023-04-17T07:00:45.687Z,93866.28
2023-04-17T07:03:14.839Z,93862.09
2023-04-17T07:05:44.951Z,93853.06
2023-04-17T07:08:12.837Z,93859.25
2023-04-17T07:10:42.095Z,93858.84
2023-04-17T07:13:10.002Z,93865.06
2023-04-17T07:15:38.030Z,93871.47
2023-04-17T07:18:06.357Z,93870.03
2023-04-17T07:20:34.294Z,93870.84
2023-04-17T07:23:02.404Z,93878.28
2023-04-17T07:25:30.234Z,93875.56
2023-04-17T07:27:59.572Z,93882.56
2023-04-17T07:30:28.688Z,93881.75
2023-04-17T07:32:56.626Z,93873.09
2023-04-17T07:35:24.661Z,93880.03
2023-04-17T07:37:52.643Z,93872.16
2023-04-17T07:40:20.979Z,93877.06
2023-04-17T07:42:48.822Z,93872.16
2023-04-17T07:45:18.219Z,93875.66
2023-04-17T07:47:46.269Z,93871.09
2023-04-17T07:50:14.316Z,93858.09
2023-04-17T07:52:42.229Z,93874.88
2023-04-17T07:55:10.700Z,93881.00
2023-04-17T07:57:42.930Z,93879.47
2023-04-17T08:00:13.828Z,93887.00
2023-04-17T08:02:43.494Z,93877.13
2023-04-17T08:05:11.744Z,93889.34
2023-04-17T08:07:40.205Z,93885.84
2023-04-17T08:10:09.039Z,93885.50
2023-04-17T08:12:37.001Z,93883.22
2023-04-17T08:15:05.899Z,93894.91
2023-04-17T08:17:33.861Z,93876.13
2023-04-17T08:20:03.712Z,93889.34
2023-04-17T08:22:31.718Z,93887.34
2023-04-17T08:24:59.776Z,93886.53
2023-04-17T08:27:27.919Z,93883.97
2023-04-17T08:29:56.553Z,93882.00
2023-04-17T08:32:24.698Z,93883.88
2023-04-17T08:34:52.722Z,93884.53
2023-04-17T08:37:22.042Z,93885.19
2023-04-17T08:39:52.543Z,93884.00
2023-04-17T08:42:20.650Z,93884.97
2023-04-17T08:44:48.534Z,93867.75
2023-04-17T08:47:19.171Z,93876.13
2023-04-17T08:49:47.360Z,93877.31
2023-04-17T08:52:16.762Z,93869.72
2023-04-17T08:54:49.029Z,93871.66
2023-04-17T08:57:19.129Z,93873.84
2023-04-17T08:59:47.010Z,93873.34
2023-04-17T09:02:15.354Z,93878.66
2023-04-17T09:04:44.636Z,93877.28
2023-04-17T09:07:15.500Z,93886.78
2023-04-17T09:09:52.488Z,93885.69
2023-04-17T09:12:22.150Z,93884.59
2023-04-17T09:14:50.078Z,93883.06
2023-04-17T09:17:19.671Z,93871.94
2023-04-17T09:20:04.095Z,93880.94
2023-04-17T09:22:35.923Z,93878.31
2023-04-17T09:25:06.365Z,93874.47
2023-04-17T09:27:34.268Z,93880.84
2023-04-17T09:30:03.807Z,93872.66
2023-04-17T09:32:33.075Z,93872.28
2023-04-17T09:35:02.453Z,93880.03
2023-04-17T09:37:49.605Z,93881.63
2023-04-17T09:40:20.278Z,93896.03
2023-04-17T09:43:02.090Z,93902.91
2023-04-17T09:45:33.565Z,93900.09
2023-04-17T09:48:01.507Z,93885.28
2023-04-17T09:50:30.201Z,93875.91
2023-04-17T09:52:58.815Z,93877.69
2023-04-17T09:55:30.264Z,93869.25
2023-04-17T09:57:59.722Z,93880.53
2023-04-17T10:00:29.406Z,93877.00
2023-04-17T10:03:00.207Z,93875.19
2023-04-17T10:05:32.458Z,93870.53
2023-04-17T10:08:01.766Z,93873.03
2023-04-17T10:10:34.290Z,93880.72
2023-04-17T10:13:04.723Z,93865.28
2023-04-17T10:15:34.201Z,93875.25
2023-04-17T10:18:20.781Z,93864.59
2023-04-17T10:20:48.822Z,93861.47
2023-04-17T10:23:28.813Z,93872.06
2023-04-17T10:26:45.217Z,93867.28
2023-04-17T10:29:14.595Z,93856.06
2023-04-17T10:32:17.462Z,93860.25
2023-04-17T10:34:46.582Z,93854.94
2023-04-17T10:37:16.172Z,93849.00
2023-04-17T10:39:52.750Z,93860.75
2023-04-17T10:42:21.758Z,93847.81
2023-04-17T10:44:56.804Z,93849.44
2023-04-17T10:47:31.967Z,93841.53
2023-04-17T10:50:00.485Z,93840.75
2023-04-17T10:52:40.356Z,93845.75
2023-04-17T10:55:09.875Z,93846.66
2023-04-17T10:57:58.112Z,93845.63
2023-04-17T11:00:33.369Z,93852.03
2023-04-17T11:03:02.969Z,93843.75
2023-04-17T11:05:32.518Z,93832.78
2023-04-17T11:08:00.739Z,93843.28
2023-04-17T11:10:28.885Z,93841.78
2023-04-17T11:12:56.916Z,93839.84
2023-04-17T11:15:31.726Z,93824.47
2023-04-17T11:18:01.380Z,93840.28
2023-04-17T11:20:31.024Z,93830.22
2023-04-17T11:23:02.558Z,93842.25
2023-04-17T11:25:33.697Z,93848.41
2023-04-17T11:28:03.384Z,93843.63
2023-04-17T11:30:34.286Z,93842.31
2023-04-17T11:33:05.552Z,93841.16
2023-04-17T11:35:34.924Z,93841.16
2023-04-17T11:38:13.432Z,93844.22
2023-04-17T11:40:51.448Z,93834.03
2023-04-17T11:43:25.738Z,93832.88
2023-04-17T11:45:56.720Z,93826.69
2023-04-17T11:48:26.163Z,93836.69
2023-04-17T11:50:57.364Z,93816.78
2023-04-17T11:53:26.090Z,93808.00
2023-04-17T11:56:12.252Z,93812.16
2023-04-17T11:58:48.086Z,93810.56
2023-04-17T12:01:18.144Z,93815.06
2023-04-17T12:03:47.802Z,93815.59
2023-04-17T12:06:17.205Z,93811.47
2023-04-17T12:08:47.227Z,93806.59
2023-04-17T12:11:30.668Z,93808.91
2023-04-17T12:13:58.967Z,93806.19
2023-04-17T12:16:29.333Z,93802.97
2023-04-17T12:18:58.277Z,93793.41
2023-04-17T12:21:26.302Z,93806.06
2023-04-17T12:23:54.537Z,93802.75
2023-04-17T12:26:25.275Z,93802.50
2023-04-17T12:28:53.160Z,93801.25
2023-04-17T12:31:21.154Z,93775.81
2023-04-17T12:33:54.904Z,93793.97
2023-04-17T12:36:23.192Z,93805.38
2023-04-17T12:38:51.311Z,93802.06
2023-04-17T12:41:19.184Z,93798.31
2023-04-17T12:43:47.067Z,93801.06
2023-04-17T12:46:15.281Z,93783.13
2023-04-17T12:48:43.245Z,93784.28
2023-04-17T12:51:12.615Z,93798.31
2023-04-17T12:53:40.574Z,93799.66
2023-04-17T12:56:09.210Z,93797.69
2023-04-17T12:58:37.226Z,93794.28
2023-04-17T13:01:05.474Z,93789.34
2023-04-17T13:03:33.691Z,93786.97
2023-04-17T13:06:01.756Z,93799.09
2023-04-17T13:08:31.257Z,93793.81
2023-04-17T13:10:59.949Z,93792.34
2023-04-17T13:13:28.109Z,93797.59
2023-04-17T13:15:56.573Z,93794.28
2023-04-17T13:18:24.500Z,93801.78
2023-04-17T13:20:52.609Z,93794.03
2023-04-17T13:23:20.929Z,93788.56
2023-04-17T13:25:50.737Z,93787.88
2023-04-17T13:28:18.753Z,93781.88
2023-04-17T13:30:46.707Z,93784.97
2023-04-17T13:33:14.635Z,93777.84
2023-04-17T13:35:42.647Z,93789.81
2023-04-17T13:38:11.362Z,93775.59
2023-04-17T13:40:39.246Z,93777.75
2023-04-17T13:43:09.212Z,93779.38
2023-04-17T13:45:37.375Z,93780.63
2023-04-17T13:48:05.575Z,93777.19
2023-04-17T13:50:33.508Z,93784.09
2023-04-17T13:53:01.889Z,93779.31
2023-04-17T13:55:29.840Z,93782.34
2023-04-17T13:57:58.581Z,93770.50
2023-04-17T14:00:28.212Z,93780.69
2023-04-17T14:02:56.321Z,93783.78
2023-04-17T14:05:24.498Z,93779.91
2023-04-17T14:07:52.342Z,93778.22
2023-04-17T14:10:20.934Z,93772.72
2023-04-17T14:12:49.491Z,93763.47
2023-04-17T14:15:20.210Z,93765.97
2023-04-17T14:17:51.120Z,93776.16
2023-04-17T14:20:20.808Z,93771.84
2023-04-17T14:22:48.908Z,93781.19
2023-04-17T14:25:16.989Z,93775.59
2023-04-17T14:27:45.629Z,93782.09
2023-04-17T14:30:15.552Z,93775.59
2023-04-17T14:32:43.530Z,93773.09
2023-04-17T14:35:13.295Z,93774.03
2023-04-17T14:37:41.991Z,93777.66
2023-04-17T14:40:10.739Z,93785.41
2023-04-17T14:42:51.274Z,93792.81
2023-04-17T14:45:21.892Z,93782.50
2023-04-17T14:47:50.073Z,93778.88
2023-04-17T14:50:19.726Z,93777.13
2023-04-17T14:52:47.717Z,93781.81
2023-04-17T14:55:15.661Z,93780.72
2023-04-17T14:57:49.653Z,93781.44
2023-04-17T15:00:21.548Z,93786.22
2023-04-17T15:02:50.348Z,93780.44
2023-04-17T15:05:21.114Z,93780.84
2023-04-17T15:07:49.546Z,93789.41
2023-04-17T15:10:17.760Z,93778.69
2023-04-17T15:12:45.667Z,93785.44
2023-04-17T15:15:13.539Z,93782.69
2023-04-17T15:17:41.459Z,93784.41
2023-04-17T15:20:10.822Z,93784.97
2023-04-17T15:22:40.239Z,93774.25
2023-04-17T15:25:08.949Z,93776.22
2023-04-17T15:27:37.174Z,93772.41
2023-04-17T15:30:08.948Z,93753.03
2023-04-17T15:32:36.997Z,93775.25
2023-04-17T15:35:05.865Z,93778.09
2023-04-17T15:37:35.922Z,93773.38
2023-04-17T15:40:06.115Z,93776.78
2023-04-17T15:42:36.592Z,93762.28
2023-04-17T15:45:05.344Z,93750.97
2023-04-17T15:47:33.393Z,93778.72
2023-04-17T15:50:01.336Z,93773.09
2023-04-17T15:52:29.333Z,93771.13
2023-04-17T15:54:57.221Z,93779.69
2023-04-17T15:57:26.641Z,93767.88
2023-04-17T15:59:54.535Z,93765.75
2023-04-17T16:02:22.895Z,93771.13
2023-04-17T16:04:50.967Z,93779.44
2023-04-17T16:07:20.037Z,93781.25
2023-04-17T16:09:48.343Z,93789.03
2023-04-17T16:12:16.257Z,93790.84
2023-04-17T16:14:45.599Z,93788.97
2023-04-17T16:17:13.504Z,93793.84
2023-04-17T16:19:41.391Z,93798.09
2023-04-17T16:22:09.345Z,93793.44
2023-04-17T16:24:37.326Z,93797.59
2023-04-17T16:27:05.549Z,93797.25
2023-04-17T16:29:33.675Z,93793.06
2023-04-17T16:32:03.250Z,93805.34
2023-04-17T16:34:31.229Z,93812.25
2023-04-17T16:36:59.144Z,93798.97
2023-04-17T16:39:27.137Z,93806.94
2023-04-17T16:41:56.242Z,93805.06
2023-04-17T16:44:25.993Z,93812.31
2023-04-17T16:49:28.646Z,93813.31
2023-04-17T16:51:56.544Z,93814.34
2023-04-17T16:54:24.461Z,93817.00
2023-04-17T16:56:53.148Z,93813.56
2023-04-17T16:59:21.176Z,93820.91
2023-04-17T17:01:49.790Z,93813.69
2023-04-17T17:04:17.774Z,93828.44
2023-04-17T17:06:47.141Z,93831.59
2023-04-17T17:09:15.342Z,93829.44
2023-04-17T17:11:43.492Z,93835.22
2023-04-17T17:14:11.466Z,93846.38
2023-04-17T17:16:40.843Z,93847.91
2023-04-17T17:19:09.191Z,93831.41
2023-04-17T17:21:37.120Z,93837.22
2023-04-17T17:24:07.194Z,93861.69
2023-04-17T17:26:37.044Z,93860.59
2023-04-17T17:29:05.262Z,93865.06
2023-04-17T17:31:34.599Z,93864.88
2023-04-17T17:34:16.689Z,93859.28
2023-04-17T17:36:51.445Z,93870.28
2023-04-17T17:39:21.779Z,93880.91
2023-04-17T17:41:50.060Z,93881.47
2023-04-17T17:44:17.985Z,93876.06
2023-04-17T17:46:46.128Z,93889.41
2023-04-17T17:49:14.100Z,93891.91
2023-04-17T17:51:42.520Z,93878.66
2023-04-17T17:54:10.695Z,93890.84
2023-04-17T17:56:40.202Z,93879.97
2023-04-17T17:59:08.189Z,93902.06
2023-04-17T18:01:36.194Z,93909.53
2023-04-17T18:04:04.404Z,93901.19
2023-04-17T18:06:32.493Z,93916.44
2023-04-17T18:09:03.130Z,93919.88
2023-04-17T18:11:31.050Z,93926.06
2023-04-17T18:14:01.808Z,93931.06
2023-04-17T18:16:31.638Z,93923.06
2023-04-17T18:19:02.053Z,93930.66
2023-04-17T18:21:30.164Z,93928.66
2023-04-17T18:23:58.221Z,93932.84
2023-04-17T18:26:26.140Z,93931.03
2023-04-17T18:28:54.085Z,93931.25
2023-04-17T18:31:25.258Z,93936.41
2023-04-17T18:33:53.222Z,93940.06
2023-04-17T18:36:21.482Z,93935.63
2023-04-17T18:38:49.424Z,93942.44
2023-04-17T18:41:17.794Z,93944.22
2023-04-17T18:43:45.834Z,93949.06
2023-04-17T18:46:13.860Z,93945.13
2023-04-17T18:48:43.507Z,93933.91
2023-04-17T18:51:12.615Z,93948.34
2023-04-17T18:53:40.674Z,93953.16
2023-04-17T18:56:10.818Z,93945.16
2023-04-17T18:58:40.387Z,93945.28
2023-04-17T19:01:10.478Z,93955.97
2023-04-17T19:03:38.783Z,93945.91
2023-04-17T19:06:08.148Z,93943.28
2023-04-17T19:08:36.853Z,93952.13
2023-04-17T19:11:04.849Z,93942.13
2023-04-17T19:13:33.026Z,93952.72
2023-04-17T19:16:01.017Z,93945.16
2023-04-17T19:18:29.257Z,93941.16
2023-04-17T19:20:57.187Z,93946.72
2023-04-17T19:23:26.721Z,93943.09
2023-04-17T19:25:55.022Z,93945.69
2023-04-17T19:28:24.501Z,93951.09
2023-04-17T19:30:52.420Z,93950.91
2023-04-17T19:33:20.577Z,93951.47
2023-04-17T19:35:48.540Z,93950.84
2023-04-17T19:38:17.433Z,93944.63
2023-04-17T19:40:48.543Z,93950.66
2023-04-17T19:43:16.817Z,93951.63
2023-04-17T19:45:44.756Z,93955.00
2023-04-17T19:48:12.803Z,93948.63
2023-04-17T19:50:40.757Z,93954.69
2023-04-17T19:53:08.603Z,93955.47
2023-04-17T19:55:36.463Z,93959.69
2023-04-17T19:58:06.110Z,93949.84
2023-04-17T20:00:34.084Z,93953.84
2023-04-17T20:03:02.115Z,93946.88
2023-04-17T20:05:30.564Z,93950.69
2023-04-17T20:07:58.562Z,93951.38
2023-04-17T20:10:27.449Z,93954.59
2023-04-17T20:12:55.521Z,93963.84
2023-04-17T20:15:25.030Z,93956.00
2023-04-17T20:17:54.322Z,93953.63
2023-04-17T20:20:22.653Z,93955.88
2023-04-17T20:22:50.880Z,93958.47
2023-04-17T20:25:18.793Z,93948.97
2023-04-17T20:27:46.720Z,93948.00
2023-04-17T20:30:16.659Z,93957.41
2023-04-17T20:32:48.024Z,93962.38
2023-04-17T20:35:16.502Z,93962.97
2023-04-17T20:37:45.831Z,93956.19
2023-04-17T20:40:14.636Z,93962.63
2023-04-17T20:42:45.888Z,93962.50
2023-04-17T20:45:14.048Z,93965.31
2023-04-17T20:47:56.113Z,93965.47
2023-04-17T20:50:26.322Z,93955.78
2023-04-17T20:52:54.212Z,93963.28
2023-04-17T20:55:23.221Z,93954.47
2023-04-17T20:57:51.204Z,93957.66
2023-04-17T21:00:19.412Z,93966.06
2023-04-17T21:02:47.491Z,93962.50
2023-04-17T21:05:15.486Z,93961.09
2023-04-17T21:07:44.704Z,93965.25
2023-04-17T21:10:12.634Z,93963.63
2023-04-17T21:12:40.590Z,93969.47
2023-04-17T21:15:10.264Z,93963.47
2023-04-17T21:17:38.653Z,93963.41
2023-04-17T21:20:07.536Z,93960.16
2023-04-17T21:22:36.813Z,93962.59
2023-04-17T21:25:07.585Z,93966.16
2023-04-17T21:27:35.489Z,93967.31
2023-04-17T21:30:03.957Z,93959.28
2023-04-17T21:32:31.815Z,93961.94
2023-04-17T21:34:59.708Z,93963.72
2023-04-17T21:37:27.628Z,93962.06
2023-04-17T21:39:55.727Z,93973.25
2023-04-17T21:42:26.109Z,93967.38
2023-04-17T21:44:54.058Z,93964.56
2023-04-17T21:47:22.095Z,93967.56
2023-04-17T21:49:50.214Z,93969.22
2023-04-17T21:52:18.711Z,93955.09
2023-04-17T21:54:46.601Z,93972.09
2023-04-17T21:57:14.461Z,93966.78
2023-04-17T21:59:43.689Z,93969.03
2023-04-17T22:02:11.633Z,93959.81
2023-04-17T22:04:39.867Z,93954.19
2023-04-17T22:07:08.676Z,93957.97
2023-04-17T22:09:36.548Z,93960.63
2023-04-17T22:12:12.032Z,93959.50
2023-04-17T22:14:41.082Z,93963.91
2023-04-17T22:17:10.434Z,93958.88
2023-04-17T22:19:38.338Z,93965.47
2023-04-17T22:22:06.191Z,93969.66
2023-04-17T22:24:34.107Z,93964.22
2023-04-17T22:27:02.289Z,93965.88
2023-04-17T22:29:30.226Z,93965.88
2023-04-17T22:31:58.122Z,93961.00
2023-04-17T22:34:27.338Z,93959.78
2023-04-17T22:36:55.208Z,93960.94
2023-04-17T22:39:23.099Z,93958.16
2023-04-17T22:41:51.458Z,93957.41
2023-04-17T22:44:19.308Z,93960.22
2023-04-17T22:46:47.260Z,93957.41
2023-04-17T22:49:15.463Z,93965.25
2023-04-17T22:51:44.678Z,93965.06
2023-04-17T22:54:22.133Z,93954.28
2023-04-17T22:56:50.899Z,93961.44
2023-04-17T22:59:18.758Z,93960.22
2023-04-17T23:01:46.662Z,93967.53
2023-04-17T23:04:14.827Z,93972.13
2023-04-17T23:06:44.342Z,93966.94
2023-04-17T23:09:12.280Z,93959.22
2023-04-17T23:11:40.149Z,93966.19
2023-04-17T23:14:08.260Z,93963.13
2023-04-17T23:16:36.301Z,93958.81
2023-04-17T23:19:04.750Z,93957.22
2023-04-17T23:21:32.645Z,93953.19
2023-04-17T23:24:02.001Z,93953.06
2023-04-17T23:26:29.898Z,93955.91
2023-04-17T23:28:57.769Z,93957.13
2023-04-17T23:31:25.814Z,93959.97
2023-04-17T23:33:53.768Z,93962.59
2023-04-17T23:36:21.605Z,93959.22
2023-04-17T23:38:49.469Z,93963.41
2023-04-17T23:41:18.835Z,93965.59
2023-04-17T23:43:46.937Z,93971.13
2023-04-17T23:46:14.890Z,93967.81
2023-04-17T23:48:42.797Z,93978.31
2023-04-17T23:51:10.668Z,93977.53
2023-04-17T23:53:38.552Z,93977.97
2023-04-17T23:56:06.883Z,93977.78
2023-04-17T23:58:36.126Z,93977.78
